Date,TemperatureHighF,TemperatureAvgF,TemperatureLowF,DewpointHighF,DewpointAvgF,DewpointLowF,HumidityHigh,HumidityAvg,HumidityLow,PressureMaxIn,PressureMinIn,WindSpeedMaxMPH,WindSpeedAvgMPH,GustSpeedMaxMPH,PrecipitationSumIn
2013-1-1,87.8,67.7,56.1,70.4,63.2,55.9,99,87,55,30.12,29.95,0,0,0,0.00
2013-1-2,85.3,66.9,54.7,75.8,64.4,54.4,99,92,68,30.00,29.90,0,0,0,0.00
2013-1-3,88.3,70.1,59.7,77.5,67.0,59.5,99,91,56,30.03,29.93,0,0,0,0.00
2013-1-4,86.7,71.3,62.6,77.7,69.9,62.3,99,96,71,30.15,30.02,0,0,0,0.00
2013-1-5,84.2,69.9,63.1,75.5,68.0,62.9,99,94,73,30.17,30.05,0,0,0,0.00
2013-1-6,87.6,71.2,61.5,79.4,69.2,61.3,99,94,68,30.09,29.95,0,0,0,0.00
2013-1-7,83.3,73.1,68.4,76.4,71.6,68.1,99,95,75,30.07,29.98,0,0,0,0.00
2013-1-8,89.2,75.4,67.8,79.0,72.3,67.6,99,91,63,30.10,29.99,0,0,0,0.00
2013-1-9,89.4,76.4,69.3,78.9,72.5,69.0,99,89,59,30.16,30.05,0,0,0,0.00
2013-1-10,90.5,74.0,65.3,76.8,69.7,65.0,99,88,53,30.19,30.07,0,0,0,0.00
2013-1-11,88.7,71.0,58.5,76.9,66.7,58.2,99,88,57,30.16,30.03,0,0,0,0.00
2013-1-12,87.6,71.6,60.1,77.8,68.0,59.8,99,90,61,30.09,29.96,0,0,0,0.00
2013-1-13,87.4,69.5,57.2,76.2,66.3,56.9,99,91,64,30.03,29.96,0,0,0,0.00
2013-1-14,88.2,69.2,56.3,72.9,64.2,56.0,99,86,56,30.08,30.01,0,0,0,0.00
2013-1-15,86.9,68.9,53.8,75.4,65.5,53.5,99,90,62,30.05,29.94,0,0,0,0.00
2013-1-16,90.5,70.1,53.4,75.8,65.4,53.2,99,87,55,30.02,29.91,0,0,0,0.00
2013-1-17,85.6,68.7,59.9,79.7,65.8,56.0,99,91,66,30.03,29.89,0,0,0,0.00
2013-1-18,72.9,59.2,50.0,60.2,53.6,44.1,99,83,58,30.21,30.03,0,0,0,0.00
2013-1-19,79.2,67.7,59.5,71.8,65.8,59.3,99,94,78,30.15,30.01,0,0,0,0.00
2013-1-20,82.4,70.0,64.6,73.6,67.9,64.3,99,94,67,30.07,29.93,0,0,0,0.00
2013-1-21,79.0,67.5,60.6,73.8,66.6,60.4,99,97,79,30.01,29.91,0,0,0,0.00
2013-1-22,75.9,64.4,54.9,61.6,58.1,50.9,99,82,60,30.16,29.95,0,0,0,0.00
2013-1-23,79.9,60.6,50.2,59.9,51.0,45.2,96,73,44,30.24,30.14,0,0,0,0.00
2013-1-24,82.6,58.8,45.0,58.9,49.3,44.7,99,76,33,30.23,30.12,0,0,0,0.00
2013-1-25,85.3,58.7,40.5,62.8,52.1,40.2,99,82,45,30.22,30.09,0,0,0,0.00
2013-1-26,87.3,60.3,43.0,60.2,51.5,42.7,99,79,34,30.19,30.07,0,0,0,0.00
2013-1-27,85.5,66.1,48.6,67.4,59.2,48.3,99,81,51,30.19,30.10,0,0,0,0.00
2013-1-28,87.1,70.4,58.3,71.5,64.5,58.0,99,83,55,30.22,30.11,0,0,0,0.00
2013-1-29,89.1,71.2,57.7,75.7,67.6,57.5,99,90,58,30.14,30.00,0,0,0,0.00
2013-1-30,87.6,72.3,63.0,75.3,68.6,62.7,99,89,61,30.02,29.87,0,0,0,0.00
2013-1-31,72.3,63.3,48.0,70.6,59.5,40.1,99,88,59,30.13,29.85,0,0,0,0.07
2013-2-1,77.4,54.9,38.7,53.8,44.2,37.8,99,71,34,30.22,30.12,0,0,0,0.00
2013-2-2,84.0,58.3,39.6,58.5,49.0,39.3,99,76,39,30.19,30.03,0,0,0,0.00
2013-2-3,79.3,58.2,44.6,54.9,46.7,40.3,99,73,27,30.12,29.99,0,0,0,0.00
2013-2-4,81.5,55.5,35.1,56.9,45.2,34.8,99,75,28,30.08,29.94,0,0,0,0.00
2013-2-5,87.6,63.2,42.1,65.9,55.5,41.8,99,80,48,30.00,29.91,0,0,0,0.00
2013-2-6,89.4,68.6,51.8,71.7,63.4,51.5,99,86,55,30.02,29.92,0,0,0,0.00
2013-2-7,88.3,69.7,54.9,73.8,64.3,54.6,99,86,53,29.99,29.84,0,0,0,0.00
2013-2-8,85.5,72.8,59.9,78.0,68.5,59.6,99,88,52,29.97,29.80,0,0,0,0.00
2013-2-9,86.7,68.6,54.7,71.5,63.8,54.4,99,86,56,30.07,29.96,0,0,0,0.00
2013-2-10,86.9,71.9,61.2,70.2,66.2,60.9,99,84,53,30.14,30.03,0,0,0,0.00
2013-2-11,89.1,71.2,56.3,74.1,67.0,56.0,99,88,59,30.12,29.99,0,0,0,0.00
2013-2-12,88.9,71.0,57.4,78.3,68.1,57.1,99,91,71,30.02,29.88,0,0,0,0.00
2013-2-13,89.8,74.8,61.3,82.9,72.0,61.1,99,92,66,29.91,29.82,0,0,0,0.00
2013-2-14,78.3,65.8,59.4,78.0,65.6,59.1,99,99,99,29.94,29.78,0,0,0,1.36
2013-2-15,68.9,63.3,59.4,68.6,63.1,59.1,99,99,99,29.97,29.85,0,0,0,0.14
2013-2-16,63.5,61.2,52.2,62.9,59.2,51.6,99,93,78,30.02,29.83,0,0,0,0.00
2013-2-17,64.0,51.3,34.2,52.4,35.4,28.5,99,59,33,30.25,30.02,0,0,0,0.00
2013-2-18,77.0,52.4,31.5,55.1,45.1,31.2,99,80,45,30.25,30.13,0,0,0,0.00
2013-2-19,82.6,63.7,46.6,70.3,59.7,46.3,99,88,66,30.12,30.00,0,0,0,0.00
2013-2-20,91.2,68.1,52.5,74.2,60.6,52.3,99,81,45,30.03,29.90,0,0,0,0.00
2013-2-21,73.0,69.0,65.5,72.8,68.7,65.2,99,99,99,30.00,29.99,0,0,0,0.00
2013-2-27,63.9,63.9,63.9,63.6,63.6,63.6,99,99,99,29.89,29.89,0,0,0,0.13
2013-2-28,63.7,63.7,63.7,63.4,63.4,63.4,99,99,99,29.88,29.87,0,0,0,0.00
2013-3-2,67.6,55.1,0.0,55.1,49.1,45.8,97,75,56,29.96,29.91,7,1,8,0.00
2013-3-3,68.2,53.3,43.3,55.0,49.1,43.1,99,88,52,30.07,29.89,16,2,16,0.02
2013-3-4,71.2,51.1,33.1,52.4,43.1,32.8,99,79,38,30.13,30.03,10,2,11,0.33
2013-3-5,81.9,57.6,35.4,63.8,50.9,35.2,99,82,48,30.09,30.00,8,2,11,0.00
2013-3-6,76.6,59.3,46.4,70.3,52.9,45.3,99,82,47,30.05,29.93,11,3,14,0.02
2013-3-7,70.7,53.9,37.9,51.3,44.8,37.2,99,75,41,30.13,30.01,10,3,11,0.00
2013-3-8,81.7,58.2,36.7,58.1,48.8,36.4,99,76,40,30.12,30.01,8,2,10,0.00
2013-3-9,82.2,62.3,39.4,60.9,51.7,39.1,99,73,38,30.11,30.01,11,2,11,0.00
2013-3-10,83.3,67.0,49.5,63.9,58.5,49.2,99,77,50,30.07,29.93,12,3,14,0.00
2013-3-11,86.2,68.8,52.9,70.2,63.1,52.6,99,84,57,30.02,29.83,10,3,14,0.00
2013-3-12,79.2,68.8,60.1,76.9,68.2,59.8,99,98,89,29.94,29.81,11,3,14,0.00
2013-3-13,79.2,63.6,48.7,60.3,52.7,45.5,99,74,35,30.17,29.94,16,3,16,0.00
2013-3-14,76.8,59.1,45.9,53.1,45.5,36.2,99,67,25,30.15,30.03,11,4,15,0.00
2013-3-15,78.8,57.6,41.4,50.0,44.0,37.5,99,68,26,30.19,30.05,12,3,15,0.00
2013-3-16,82.9,60.5,39.2,62.0,50.5,38.9,99,74,38,30.10,29.98,13,2,15,0.00
2013-3-17,85.8,64.3,44.6,68.5,57.9,44.3,99,83,54,30.05,29.91,8,2,11,0.00
2013-3-18,83.3,69.5,58.3,75.5,67.9,58.0,99,95,77,29.97,29.86,12,2,14,0.34
2013-3-19,87.8,71.8,61.2,76.9,69.5,60.9,99,93,69,29.93,29.77,8,2,10,0.01
2013-3-20,88.5,68.2,56.7,74.8,63.7,56.4,99,88,49,29.92,29.73,14,2,17,0.07
2013-3-21,80.1,66.0,49.1,63.6,57.6,48.8,99,78,42,29.88,29.76,10,2,11,0.01
2013-3-22,86.2,66.1,45.7,77.5,63.2,45.4,99,91,74,29.89,29.79,11,2,13,0.00
2013-3-23,90.1,77.7,66.0,82.1,73.2,65.8,99,87,62,29.87,29.72,12,3,17,0.00
2013-3-24,86.7,76.5,64.9,82.6,75.3,64.7,99,96,80,29.77,29.60,16,5,20,0.00
2013-3-25,83.3,72.3,53.6,76.4,60.9,36.6,99,71,34,29.95,29.66,8,3,12,0.00
2013-3-26,70.2,58.3,46.8,51.1,46.0,41.5,97,66,42,30.16,29.95,13,4,17,0.00
2013-3-27,71.4,60.3,43.9,49.1,44.0,38.5,99,59,34,30.20,30.10,13,4,13,0.00
2013-3-28,80.4,57.0,36.7,51.1,43.2,36.4,99,68,25,30.20,30.07,11,2,11,0.00
2013-3-29,82.8,60.0,37.6,54.7,46.5,37.3,99,68,33,30.22,30.09,11,2,12,0.00
2013-3-30,85.6,64.2,45.9,63.3,55.4,45.6,99,77,44,30.17,30.03,8,2,14,0.00
2013-3-31,88.0,68.6,48.6,70.4,61.6,48.3,99,82,50,30.12,29.92,11,2,12,0.00
2013-4-1,89.1,72.0,56.3,78.9,67.4,56.0,99,87,59,29.97,29.87,13,2,17,0.00
2013-4-2,92.1,73.3,60.4,77.5,68.2,60.2,99,86,57,30.00,29.90,6,2,10,0.00
2013-4-3,92.7,76.0,60.6,77.6,70.6,60.4,99,85,55,29.97,29.84,12,3,15,0.00
2013-4-4,87.6,72.5,65.5,81.1,71.2,65.2,99,96,81,29.94,29.80,15,4,17,0.59
2013-4-5,73.4,68.1,61.7,73.2,67.7,61.4,99,99,91,29.93,29.72,12,2,17,0.61
2013-4-6,83.5,68.6,58.5,69.1,63.5,58.2,99,85,59,30.00,29.87,11,4,13,0.01
2013-4-7,90.0,72.3,55.6,73.0,65.5,55.3,99,81,51,30.03,29.93,12,3,12,0.00
2013-4-8,92.5,75.5,59.0,72.6,67.2,58.7,99,78,48,30.03,29.91,12,2,12,0.00
2013-4-9,90.1,74.3,56.1,76.4,68.0,55.9,99,83,55,30.04,29.94,8,3,17,0.00
2013-4-10,92.7,72.8,62.1,79.9,70.9,61.8,99,94,63,30.01,29.86,8,1,11,0.00
2013-4-11,90.9,78.9,69.6,84.1,76.6,69.4,99,93,73,29.91,29.75,14,4,18,0.00
2013-4-12,93.4,80.6,73.8,84.7,77.3,73.5,99,91,65,29.84,29.77,13,3,17,0.70
2013-4-13,96.1,81.5,70.5,81.2,76.6,70.3,99,86,62,29.88,29.74,7,2,13,0.00
2013-4-14,94.8,79.7,67.1,84.7,75.9,66.8,99,89,68,29.87,29.74,17,3,17,0.00
2013-4-15,98.1,81.8,67.6,85.1,76.5,67.4,99,86,58,29.97,29.83,11,2,12,0.00
2013-4-16,96.3,80.8,67.8,81.5,76.0,67.6,99,87,58,30.02,29.91,13,4,13,0.00
2013-4-17,94.1,80.2,68.9,79.5,74.2,68.6,99,83,58,30.02,29.89,10,4,12,0.00
2013-4-18,95.7,80.8,65.8,81.5,75.3,65.6,99,85,59,29.95,29.83,10,3,13,0.00
2013-4-19,96.1,81.3,69.8,83.0,76.6,69.5,99,87,62,29.93,29.83,12,3,14,0.00
2013-4-20,94.6,78.8,66.2,85.6,74.8,65.9,99,89,61,30.00,29.85,13,2,14,0.00
2013-4-21,92.3,74.7,66.2,82.2,72.9,65.9,99,95,67,30.00,29.88,9,4,11,0.00
2013-4-22,90.5,75.4,67.8,81.0,73.5,67.6,99,94,70,29.97,29.83,8,2,10,0.00
2013-4-23,90.5,76.6,66.4,77.3,70.8,66.1,99,84,57,30.00,29.88,12,5,14,0.12
2013-4-24,92.3,73.3,58.3,73.9,67.7,58.0,99,85,55,30.04,29.97,10,2,11,0.00
2013-4-26,92.1,82.1,57.9,74.8,70.3,57.6,99,69,53,30.14,30.03,12,4,13,0.00
2013-4-27,91.0,75.5,58.8,74.6,66.6,58.6,99,77,51,30.11,29.95,12,3,16,0.00
2013-4-28,93.9,77.0,63.9,76.0,70.4,63.6,99,82,53,30.01,29.86,11,3,13,0.00
2013-4-29,94.1,73.5,60.4,78.8,70.2,60.2,99,91,61,29.93,29.83,8,2,11,0.18
2013-4-30,94.3,76.1,64.2,84.1,73.1,64.0,99,91,67,29.90,29.81,8,2,10,0.00
2013-5-1,85.8,71.6,63.9,82.8,71.2,63.6,99,98,87,29.90,29.80,16,2,16,0.35
2013-5-2,79.7,70.3,64.9,79.5,70.0,64.7,99,99,94,29.86,29.71,6,1,8,0.51
2013-5-3,89.8,75.9,63.1,81.0,71.7,62.9,99,88,64,29.75,29.60,11,2,12,0.00
2013-5-4,86.4,74.5,62.6,78.7,71.2,62.3,99,90,70,29.73,29.61,15,4,19,0.00
2013-5-5,85.3,74.3,57.7,71.2,66.3,57.5,99,78,50,29.88,29.70,14,3,14,0.00
2013-5-6,84.9,69.4,52.9,74.6,64.2,52.6,99,85,65,29.93,29.85,8,2,11,0.00
2013-5-7,84.6,71.4,54.9,72.5,64.8,54.6,99,82,61,29.99,29.90,12,2,17,0.00
2013-5-8,88.3,71.3,53.1,76.3,63.3,52.8,99,79,50,30.05,29.96,8,2,16,0.00
2013-5-9,95.2,73.1,51.4,75.2,64.7,51.2,99,79,47,30.05,29.96,8,2,10,0.00
2013-5-10,96.8,79.9,60.6,81.7,72.7,60.4,99,81,56,30.03,29.90,11,2,13,0.00
2013-5-11,96.1,80.4,64.9,84.8,75.5,64.7,99,87,61,29.97,29.89,10,2,14,0.00
2013-5-12,92.7,79.8,68.4,86.6,77.0,68.1,99,92,73,29.95,29.83,9,2,14,0.01
2013-5-13,92.1,79.2,65.3,80.3,73.6,64.0,99,84,63,30.01,29.91,7,2,11,0.00
2013-5-14,91.2,76.6,63.0,70.9,63.6,58.0,98,67,44,30.09,29.99,14,4,15,0.00
2013-5-15,90.9,73.3,54.0,71.1,64.2,53.7,99,76,49,30.10,29.97,11,3,11,0.00
2013-5-16,93.6,77.5,59.2,73.7,68.0,58.9,99,76,48,30.01,29.90,10,2,10,0.00
2013-5-17,95.9,79.5,61.0,78.7,69.9,60.7,99,76,48,29.99,29.92,7,2,11,0.00
2013-5-18,97.3,79.2,61.3,83.2,73.8,61.1,99,85,57,30.01,29.91,9,2,11,0.00
2013-5-19,95.9,78.9,65.8,81.9,74.2,65.6,99,87,58,30.00,29.86,8,2,16,0.26
2013-5-20,95.7,76.7,68.4,86.2,74.0,68.1,99,93,58,29.96,29.87,14,2,20,0.83
2013-5-21,94.6,77.0,67.8,84.1,74.7,67.6,99,93,66,29.91,29.80,8,2,13,0.33
2013-5-22,94.8,79.8,66.2,85.2,75.2,65.9,99,87,65,29.85,29.78,8,2,11,0.00
2013-5-23,94.3,80.4,65.5,85.4,75.2,65.2,99,86,64,29.92,29.82,8,2,11,0.00
2013-5-24,98.2,81.8,67.8,83.4,75.4,67.6,99,83,50,29.98,29.87,9,2,14,0.00
2013-5-25,94.1,80.1,64.4,82.3,73.2,64.1,99,82,57,30.06,29.94,11,4,13,0.00
2013-5-26,93.0,79.3,66.0,76.1,71.6,65.8,99,79,52,30.08,29.98,10,4,13,0.00
2013-5-27,91.2,77.8,64.0,80.6,73.7,63.8,99,88,71,30.06,29.92,14,4,15,0.00
2013-5-28,90.1,77.9,72.5,83.8,76.5,72.2,99,96,74,30.00,29.92,12,3,14,0.14
2013-5-29,85.8,75.7,71.2,82.8,75.2,71.0,99,98,88,29.99,29.90,13,4,15,0.40
2013-5-30,90.1,78.1,70.5,87.1,76.8,70.3,99,96,79,29.95,29.85,13,4,16,0.11
2013-5-31,93.7,78.5,71.6,85.9,77.2,71.3,99,96,77,29.94,29.89,11,2,11,0.74
2013-6-1,97.7,80.0,73.2,88.2,78.5,73.0,99,95,69,29.93,29.83,8,3,14,0.04
2013-6-2,96.4,81.4,70.7,87.2,78.4,70.4,99,91,66,29.91,29.82,9,2,12,0.05
2013-6-3,85.8,78.8,72.0,85.3,78.3,71.7,99,98,92,29.92,29.82,7,1,11,0.01
2013-6-4,83.8,76.9,72.0,83.6,76.7,71.7,99,99,99,29.94,29.86,5,1,11,0.35
2013-6-5,80.6,77.6,73.2,80.4,77.4,73.0,99,99,99,29.91,29.76,7,3,11,0.44
2013-6-6,85.5,76.8,72.9,85.2,76.6,72.6,99,99,93,29.77,29.65,15,4,19,2.31
2013-6-7,90.7,79.2,72.3,87.6,78.6,72.1,99,98,84,29.86,29.72,14,2,14,0.73
2013-6-8,98.8,83.7,77.4,85.6,80.8,77.1,99,92,66,30.00,29.91,8,2,8,0.01
2013-6-9,98.6,84.9,75.0,88.2,80.2,74.8,99,87,58,30.00,29.89,11,3,14,0.00
2013-6-10,99.9,84.4,73.0,87.7,81.0,72.8,99,90,63,29.98,29.88,8,2,9,0.00
2013-6-11,102.0,80.3,68.7,88.4,77.9,68.5,99,93,62,29.98,29.88,17,2,21,1.88
2013-6-12,97.7,79.0,71.2,89.5,77.5,71.0,99,96,68,29.98,29.89,8,2,19,0.02
2013-6-13,97.0,78.9,68.2,89.7,76.6,67.9,99,94,65,29.95,29.85,8,1,11,0.14
2013-6-14,94.3,82.3,70.2,90.7,78.6,69.9,99,90,70,29.88,29.79,10,2,12,0.00
2013-6-15,98.1,83.1,69.3,89.8,79.1,69.0,99,89,63,29.95,29.84,7,1,11,0.31
2013-6-16,99.1,84.8,72.5,89.2,81.1,72.2,99,90,65,29.99,29.90,7,2,8,0.01
2013-6-17,99.1,83.6,73.0,88.8,80.1,72.8,99,90,59,29.99,29.90,8,2,11,0.30
2013-6-18,101.7,86.9,71.8,89.6,82.0,71.5,99,87,61,29.96,29.88,8,2,12,0.04
2013-6-19,99.1,82.0,69.8,89.6,78.5,69.5,99,91,57,29.96,29.86,11,2,25,1.76
2013-6-20,95.9,81.5,70.3,89.9,78.6,70.1,99,92,65,30.00,29.92,8,2,11,0.01
2013-6-21,97.7,81.1,69.4,87.0,77.2,69.2,99,89,64,30.01,29.93,8,1,11,0.04
2013-6-22,99.0,81.7,68.7,86.9,78.0,68.5,99,90,60,30.01,29.92,7,2,10,0.05
2013-6-23,96.4,80.9,70.5,86.9,78.8,70.3,99,94,68,30.03,29.95,6,2,10,0.00
2013-6-24,96.6,82.0,71.1,86.1,78.7,70.8,99,91,67,30.06,29.96,8,2,14,0.01
2013-6-25,97.3,83.0,71.4,86.4,79.0,71.2,99,89,68,30.03,29.91,14,2,14,0.01
2013-6-26,96.1,79.0,72.1,89.0,78.1,71.8,99,97,78,29.98,29.91,11,2,17,0.73
2013-6-27,98.1,81.2,70.9,89.4,78.2,70.6,99,92,67,29.95,29.87,8,2,9,0.01
2013-6-28,95.9,83.7,70.3,89.6,81.4,70.0,99,93,70,29.90,29.77,5,0,9,0.30
2013-6-29,97.2,83.8,71.8,89.2,79.7,71.5,99,89,69,29.82,29.73,9,2,11,0.00
2013-6-30,93.0,81.0,73.6,89.0,80.1,73.3,99,97,81,29.84,29.74,14,2,14,1.46
2013-7-1,91.6,76.3,70.9,88.7,75.8,70.6,99,98,88,29.93,29.79,13,2,13,2.80
2013-7-2,95.5,79.0,72.7,89.9,78.1,72.4,99,97,79,30.00,29.86,8,2,11,0.74
2013-7-3,91.0,77.2,72.5,87.7,76.8,72.2,99,98,86,30.03,29.94,10,2,14,0.65
2013-7-4,94.1,81.0,71.6,88.0,79.4,71.3,99,95,69,30.04,29.95,7,2,14,0.08
2013-7-5,92.3,78.9,72.7,86.5,77.7,72.4,99,96,81,30.03,29.94,15,2,17,0.32
2013-7-6,98.1,82.1,73.9,88.7,79.1,73.7,99,92,63,30.00,29.89,8,2,11,0.02
2013-7-7,95.4,83.7,74.3,88.8,80.7,74.1,99,91,68,29.99,29.91,19,3,19,0.12
2013-7-8,98.6,87.1,76.6,86.9,82.4,76.4,99,87,59,30.05,29.96,8,1,11,0.01
2013-7-9,93.2,80.1,71.2,86.6,78.1,71.0,99,94,72,30.04,29.95,14,2,14,0.38
2013-7-10,93.7,79.6,70.3,88.3,77.2,70.1,99,93,71,29.99,29.90,1,0,2,0.08
2013-7-11,73.8,73.7,73.6,73.5,73.4,73.3,99,99,99,29.94,29.94,0,0,0,0.00
2013-7-12,97.3,85.3,72.7,89.1,81.3,72.4,99,89,71,29.86,29.79,0,0,1,0.44
2013-7-13,93.2,77.4,71.2,88.9,76.9,71.0,99,98,81,29.90,29.81,7,1,20,0.97
2013-7-14,87.8,77.3,73.2,86.9,76.9,73.0,99,98,86,30.00,29.87,7,1,10,0.08
2013-7-15,95.5,79.1,71.6,85.1,76.5,71.3,99,92,64,29.99,29.94,2,0,2,0.00
2013-7-27,76.8,75.6,74.7,76.6,75.4,74.4,99,99,99,29.90,29.89,0,0,1,0.00
2013-7-28,101.5,83.6,71.1,93.1,79.0,70.8,99,87,62,29.97,29.85,11,1,15,0.00
2013-7-29,98.8,77.7,70.9,88.9,76.0,70.6,99,95,63,30.04,29.93,14,1,17,1.76
2013-7-30,97.3,81.9,73.0,90.7,80.8,72.8,99,97,73,30.06,29.97,11,1,13,0.01
2013-7-31,97.2,80.2,73.0,89.8,78.7,72.8,99,95,73,30.01,29.90,7,0,8,1.12
2013-8-1,96.4,78.8,72.5,88.0,76.8,72.2,99,94,71,29.96,29.81,5,1,11,0.58
2013-8-2,97.9,83.6,71.4,90.1,80.6,71.2,99,91,67,29.96,29.84,0,0,1,0.01
2013-8-3,97.9,80.5,75.4,91.3,79.9,75.1,99,98,76,30.03,29.92,1,0,1,0.00
2013-8-4,97.2,84.1,75.2,94.9,82.9,75.0,99,96,81,30.01,29.91,0,0,0,0.14
2013-8-5,98.1,84.0,75.2,93.8,82.5,75.0,99,95,76,29.95,29.85,5,0,9,0.32
2013-8-6,99.7,84.4,75.4,92.6,81.9,75.1,99,93,66,29.89,29.80,6,1,7,0.02
2013-8-7,77.2,75.8,74.7,76.9,75.6,74.4,99,99,99,29.86,29.82,0,0,0,0.30
2013-8-8,99.7,83.8,73.9,90.5,79.8,73.7,99,89,60,29.91,29.81,8,2,11,0.08
2013-8-9,96.1,79.9,72.7,89.0,78.6,72.4,99,96,70,29.96,29.85,0,0,0,0.12
2013-8-10,98.4,84.8,72.3,90.9,80.0,72.1,99,87,61,30.01,29.92,0,0,0,0.01
2013-8-12,98.6,88.3,72.9,86.6,82.0,72.6,99,83,61,29.99,29.89,0,0,0,0.04
2013-8-13,99.1,84.7,72.7,89.8,81.0,72.4,99,90,65,29.95,29.83,0,0,0,0.02
2013-8-17,98.8,82.0,76.5,86.1,80.7,76.2,99,96,66,29.97,29.87,0,0,0,0.00
2013-8-18,97.3,82.7,74.5,89.7,80.8,74.2,99,94,71,29.99,29.86,0,0,0,0.21
2013-8-19,97.9,80.2,71.8,89.6,78.5,71.5,99,95,68,29.99,29.85,0,0,3,0.72
2013-8-20,95.2,81.5,72.3,90.5,80.2,72.1,99,96,76,29.96,29.88,0,0,0,0.02
2013-8-21,94.5,81.5,76.1,89.8,80.5,75.9,99,97,82,29.97,29.87,0,0,0,0.51
2013-8-22,100.2,82.6,73.9,90.9,80.3,73.7,99,93,63,29.96,29.84,0,0,0,0.65
2013-8-23,95.7,79.1,73.0,91.7,78.3,72.8,99,98,81,29.91,29.84,0,0,0,0.50
2013-8-24,98.8,81.6,72.9,90.7,79.4,72.6,99,94,68,30.03,29.88,0,0,1,0.22
2013-8-25,93.6,80.3,74.5,88.9,79.8,74.2,99,98,85,30.04,29.92,0,0,0,0.06
2013-8-26,96.8,79.4,70.5,88.7,77.8,70.3,99,95,67,30.01,29.89,1,0,2,0.58
2013-8-27,95.4,78.2,69.8,87.4,76.7,69.5,99,96,74,29.95,29.88,0,0,0,0.09
2013-8-28,94.6,78.7,71.6,84.3,76.8,71.3,99,94,69,29.94,29.86,1,0,2,0.33
2013-8-29,82.4,73.3,71.2,82.2,73.0,71.0,99,99,99,29.94,29.88,0,0,0,0.00
2013-8-30,97.7,82.4,70.9,90.0,79.8,70.6,99,93,67,29.91,29.79,0,0,0,0.61
2013-8-31,97.3,81.8,71.4,89.5,79.1,71.1,99,92,70,29.89,29.81,0,0,0,0.00
2013-9-1,98.8,83.0,72.9,89.9,80.3,72.6,99,92,68,29.91,29.83,0,0,0,0.15
2013-9-2,95.9,76.9,72.0,90.8,76.3,71.7,99,98,82,29.94,29.84,0,0,1,1.69
2013-9-3,97.3,82.2,70.5,90.3,79.4,70.3,99,92,65,29.93,29.84,0,0,0,0.00
2013-9-4,94.1,79.8,74.5,89.9,79.1,74.2,99,98,82,29.96,29.85,0,0,0,0.04
2013-9-5,98.2,82.9,75.2,90.3,80.9,75.0,99,94,69,29.98,29.89,0,0,0,0.01
2013-9-6,98.4,83.8,71.8,89.9,80.4,71.5,99,90,69,29.98,29.80,0,0,1,2.86
2013-9-7,94.8,81.0,73.6,87.8,79.5,73.3,99,95,77,29.90,29.83,0,0,0,0.02
2013-9-8,94.8,78.7,71.2,86.0,76.6,70.9,99,94,69,29.86,29.75,0,0,0,0.00
2013-9-9,96.4,80.6,72.1,87.3,78.5,71.9,99,94,68,29.90,29.80,0,0,0,0.01
2013-9-10,94.3,81.9,72.3,86.9,79.5,72.1,99,93,73,29.94,29.86,0,0,0,0.01
2013-9-11,91.2,80.0,74.1,87.2,78.9,73.9,99,97,82,29.93,29.87,2,0,2,0.00
2013-9-12,92.3,80.7,73.6,87.9,79.6,73.3,99,97,82,29.92,29.78,1,0,1,0.00
2013-9-13,97.0,82.9,69.6,88.3,78.5,69.4,99,88,67,29.81,29.70,7,0,7,0.09
2013-9-14,99.7,83.7,71.2,90.8,79.6,71.0,99,89,61,29.86,29.73,6,1,8,0.00
2013-9-15,94.6,77.8,72.7,89.2,76.9,72.4,99,97,78,29.96,29.83,10,2,17,0.85
2013-9-16,92.7,79.1,74.5,88.1,78.7,74.2,99,98,84,29.93,29.85,11,2,17,0.28
2013-9-17,91.2,77.4,74.3,89.4,77.1,74.1,99,99,89,29.93,29.82,8,2,11,0.58
2013-9-18,96.4,78.6,73.0,88.5,77.5,72.8,99,97,74,29.92,29.83,6,2,9,0.85
2013-9-19,95.9,80.1,70.5,88.7,78.8,70.3,99,96,74,29.92,29.84,7,2,15,0.00
2013-9-20,92.7,81.6,73.4,84.5,77.8,73.2,99,89,68,29.91,29.79,8,2,11,0.00
2013-9-21,95.0,79.6,69.3,85.9,77.1,69.0,99,93,69,29.83,29.67,8,1,8,0.20
2013-9-22,94.8,81.1,70.2,87.8,78.9,69.9,99,94,75,29.77,29.67,8,2,13,0.01
2013-9-23,88.9,80.0,74.3,88.7,79.7,74.1,99,99,99,29.87,29.75,7,1,8,0.11
2013-9-24,78.4,77.5,76.5,78.2,77.2,76.2,99,99,99,29.85,29.82,4,1,4,0.00
2013-9-26,90.9,82.1,75.7,89.4,81.7,75.5,99,98,92,29.77,29.72,12,2,12,0.46
2013-9-27,93.0,80.3,71.8,85.6,77.0,71.5,99,91,66,29.83,29.73,7,2,9,0.00
2013-9-28,93.6,80.2,70.0,85.7,77.3,69.7,99,92,68,29.87,29.77,9,2,14,0.00
2013-9-29,92.8,79.8,70.0,84.9,77.5,69.7,99,93,72,29.88,29.76,8,2,11,0.00
2013-9-30,97.2,79.1,67.5,85.1,76.0,67.2,99,91,62,29.91,29.78,8,1,10,0.71
2013-10-1,95.5,80.6,70.0,87.8,78.0,69.7,99,92,70,29.93,29.83,11,2,11,0.01
2013-10-2,94.6,80.5,73.8,86.8,79.0,73.5,99,95,78,29.93,29.83,11,3,14,0.01
2013-10-3,92.7,78.4,73.0,88.5,77.6,72.8,99,97,81,29.94,29.84,11,1,16,1.33
2013-10-4,93.6,80.2,72.3,86.9,78.3,72.1,99,94,73,29.97,29.87,4,1,8,0.00
2013-10-5,94.8,82.5,72.5,83.8,77.9,72.2,99,87,61,29.95,29.82,8,2,9,0.00
2013-10-6,96.8,80.0,68.7,87.0,77.2,68.5,99,92,67,29.88,29.77,6,1,8,0.00
2013-10-7,91.9,80.1,70.7,88.9,79.1,70.4,99,97,83,29.80,29.71,9,2,14,0.05
2013-10-8,90.9,78.7,68.7,90.7,76.8,68.5,99,94,77,29.85,29.75,8,2,11,0.01
2013-10-9,91.6,78.0,69.1,84.8,76.6,68.8,99,96,76,29.91,29.82,10,2,10,0.00
2013-10-10,91.6,78.3,68.5,82.3,75.3,68.3,99,91,70,29.94,29.83,10,2,10,0.00
2013-10-11,92.7,76.8,64.2,81.9,71.8,64.0,99,87,59,29.93,29.83,9,2,9,0.00
2013-10-12,93.0,76.3,62.4,82.4,71.9,62.2,99,88,60,29.94,29.85,8,2,8,0.00
2013-10-13,90.5,77.1,67.6,84.0,73.5,67.4,99,90,67,29.96,29.85,7,2,9,0.00
2013-10-14,90.7,75.4,64.6,79.9,71.4,64.3,99,89,63,29.93,29.80,8,2,12,0.00
2013-10-15,91.9,77.2,65.8,82.0,72.8,65.6,99,88,60,29.89,29.76,10,2,11,0.00
2013-10-16,95.0,77.7,64.4,84.0,73.5,64.1,99,89,60,29.86,29.77,6,1,8,0.00
2013-10-17,95.9,78.7,65.5,84.1,75.7,65.2,99,91,66,29.88,29.78,6,1,10,0.00
2013-10-18,95.2,79.6,66.4,86.0,75.9,66.1,99,90,63,29.88,29.78,8,1,9,0.00
2013-10-19,95.5,80.3,68.0,87.4,77.6,67.7,99,92,70,29.86,29.75,9,1,11,0.00
2013-10-20,96.3,80.7,70.5,89.1,78.3,70.3,99,93,71,29.86,29.77,6,1,8,0.00
2013-10-21,94.6,79.9,69.1,89.6,78.6,68.8,99,96,80,29.90,29.80,6,1,10,0.02
2013-10-22,95.2,80.9,70.3,88.6,78.8,70.1,99,94,75,29.87,29.74,9,2,11,0.14
2013-10-23,91.4,77.8,70.7,86.6,76.1,69.1,99,95,78,29.88,29.73,10,2,11,0.09
2013-10-24,77.7,71.4,67.6,72.3,67.8,63.0,99,89,77,30.03,29.87,10,4,13,0.00
2013-10-25,84.4,72.0,63.5,74.8,68.7,63.2,99,90,69,30.10,30.00,11,4,17,0.00
2013-10-26,87.8,71.7,62.1,75.0,67.4,61.8,99,88,59,30.08,29.95,9,3,12,0.00
2013-10-27,86.9,71.0,59.5,73.7,66.3,59.3,99,87,57,30.01,29.92,8,2,9,0.00
2013-10-28,89.2,71.8,58.8,77.0,67.8,58.6,99,89,61,30.07,29.96,9,2,13,0.00
2013-10-29,89.6,74.2,62.2,79.8,70.9,62.0,99,90,70,30.10,29.98,11,3,13,0.00
2013-10-30,88.9,73.9,63.0,79.0,69.7,62.7,99,88,62,30.09,29.95,11,3,17,0.01
2013-10-31,92.8,74.6,61.2,80.7,70.6,60.9,99,89,61,30.01,29.87,8,2,12,0.00
2013-11-1,93.0,74.9,62.6,84.9,71.7,62.3,99,91,66,29.92,29.78,11,1,11,0.00
2013-11-2,93.2,78.0,65.3,83.3,75.4,65.0,99,92,70,29.86,29.73,8,2,11,0.00
2013-11-3,84.6,72.1,63.0,69.7,63.4,57.3,99,77,47,29.97,29.84,14,5,20,0.00
2013-11-4,84.7,71.8,61.0,75.9,68.0,60.3,99,89,67,30.00,29.93,14,6,17,0.00
2013-11-5,87.8,76.5,68.7,80.6,74.3,68.5,99,93,70,29.98,29.90,16,6,21,0.00
2013-11-6,91.2,77.6,66.4,81.2,74.9,66.1,99,92,72,29.97,29.87,10,3,15,0.00
2013-11-7,90.3,74.5,64.8,82.1,72.0,64.5,99,93,67,29.95,29.83,6,2,9,0.00
2013-11-8,88.2,74.9,63.0,79.6,72.7,62.7,99,93,74,29.96,29.86,14,5,18,0.00
2013-11-9,83.7,74.6,70.3,83.1,74.4,70.1,99,99,98,30.01,29.93,13,5,16,0.06
2013-11-10,88.5,78.1,71.2,81.6,75.9,71.0,99,93,75,30.03,29.93,11,4,14,0.00
2013-11-11,89.2,76.7,67.3,80.6,74.2,67.0,99,93,72,30.03,29.92,10,3,12,0.00
2013-11-12,88.9,74.9,62.8,80.7,72.3,62.5,99,92,67,30.00,29.86,8,2,11,0.00
2013-11-13,73.8,69.1,61.2,71.9,65.9,58.3,99,90,80,30.13,29.93,17,8,21,0.00
2013-11-14,81.5,68.0,55.6,69.1,63.3,55.3,99,86,60,30.14,30.03,13,4,19,0.00
2013-11-15,88.0,74.3,63.7,77.9,72.0,63.4,99,93,72,30.05,29.91,10,4,12,0.00
2013-11-16,82.6,73.4,70.2,81.7,73.1,69.9,99,99,94,29.99,29.91,5,2,8,0.02
2013-11-17,73.2,70.1,68.5,73.0,69.9,68.3,99,99,99,29.96,29.91,0,0,2,0.00
2013-11-18,93.0,75.0,63.0,83.5,73.0,62.7,99,94,68,29.94,29.82,4,1,8,0.00
2013-11-19,90.7,75.2,66.7,83.2,73.3,66.5,99,94,72,29.86,29.75,6,1,7,0.00
2013-11-20,93.0,75.8,66.2,82.4,73.8,65.9,99,94,70,29.96,29.83,6,2,7,0.00
2013-11-21,88.9,78.2,69.8,84.4,76.5,69.5,99,95,79,30.03,29.94,4,2,9,0.00
2013-11-22,89.1,79.2,67.3,81.8,76.4,67.0,99,91,77,30.05,29.95,10,4,13,0.00
2013-11-23,90.9,73.9,64.2,81.9,72.5,64.0,99,95,73,30.00,29.86,8,2,10,0.34
2013-11-24,83.5,71.9,65.3,78.9,70.9,65.0,99,97,84,30.06,29.91,12,4,16,0.00
2013-11-25,82.9,72.2,64.9,74.4,69.9,64.7,99,93,70,30.08,29.95,11,6,17,0.00
2013-11-26,89.8,77.0,70.7,84.2,75.9,70.4,99,97,79,29.94,29.71,14,4,16,0.50
2013-11-27,79.3,70.8,55.8,74.4,68.1,55.5,99,92,70,30.06,29.69,17,4,22,0.06
2013-11-28,74.5,58.0,42.8,62.8,54.5,42.5,99,89,65,30.19,30.06,11,5,16,0.00
2013-11-29,80.8,66.2,54.7,71.4,62.5,54.4,99,89,72,30.19,30.08,15,7,18,0.00
2013-12-1,68.2,67.4,65.7,67.9,67.2,65.4,99,99,99,29.93,29.89,5,3,8,0.00
2013-12-2,82.2,68.2,61.0,74.8,66.8,60.7,99,95,69,29.89,29.73,6,2,9,0.00
2013-12-3,85.5,68.5,58.1,76.3,66.5,57.8,99,94,74,29.90,29.81,8,1,10,0.00
2013-12-4,88.2,71.6,58.5,80.9,69.1,58.2,99,93,73,29.99,29.88,7,1,8,0.00
2013-12-5,90.0,72.9,58.5,80.5,69.7,58.2,99,91,67,30.06,29.95,14,2,14,0.00
2013-12-6,91.0,78.5,61.5,82.8,74.7,61.3,99,89,70,30.08,29.97,9,3,11,0.00
2013-12-7,90.3,72.3,56.7,80.7,69.4,56.4,99,92,69,30.13,30.01,8,2,8,0.00
2013-12-8,90.5,75.4,63.3,79.5,71.9,63.1,99,90,66,30.10,29.99,9,2,11,0.00
2013-12-12,75.2,67.8,58.6,75.0,65.9,54.5,99,94,79,30.16,30.06,12,6,13,0.00
2013-12-13,84.0,67.2,51.4,73.8,64.3,51.2,99,91,71,30.13,29.98,11,4,15,0.00
2013-12-14,90.5,75.3,63.0,82.3,73.6,62.7,99,95,75,30.00,29.85,11,2,12,0.00
2013-12-15,81.9,73.3,67.1,81.6,73.0,66.8,99,99,99,29.99,29.84,5,1,9,0.12
2013-12-16,77.5,65.8,55.4,70.2,63.7,55.1,99,93,74,30.09,29.98,8,3,11,0.00
2013-12-17,83.8,63.0,48.0,72.8,60.4,47.8,99,92,69,30.12,30.00,11,2,11,0.00
2013-12-18,79.9,60.5,45.5,65.8,53.5,45.2,99,82,40,30.17,30.07,14,3,14,0.00
2013-12-19,83.8,63.2,45.0,71.3,58.7,44.7,99,87,63,30.14,30.03,12,3,13,0.00
2013-12-20,83.3,63.9,56.3,79.1,63.3,56.0,99,98,87,30.07,30.03,12,2,12,0.00